createdAt,value
2017-11-13T00:00:40.235Z,981.87
2017-11-13T00:01:50.367Z,981.84
2017-11-13T00:03:00.804Z,981.94
2017-11-13T00:04:10.565Z,981.96
2017-11-13T00:05:20.668Z,981.98
2017-11-13T00:06:30.414Z,982.01
2017-11-13T00:07:40.838Z,982.17
2017-11-13T00:08:50.927Z,982.34
2017-11-13T00:10:01.329Z,982.31
2017-11-13T00:11:11.405Z,982.5
2017-11-13T00:12:21.819Z,982.51
2017-11-13T00:13:31.904Z,982.61
2017-11-13T00:14:41.650Z,982.46
2017-11-13T00:15:51.727Z,982.55
2017-11-13T00:17:01.456Z,982.5
2017-11-13T00:18:11.897Z,982.52
2017-11-13T00:19:22.335Z,982.43
2017-11-13T00:20:32.754Z,982.45
2017-11-13T00:21:43.173Z,982.33
2017-11-13T00:22:53.608Z,982.4
2017-11-13T00:24:03.697Z,982.46
2017-11-13T00:25:13.490Z,982.45
2017-11-13T00:26:23.910Z,982.47
2017-11-13T00:27:34.312Z,982.54
2017-11-13T00:28:44.727Z,982.51
2017-11-13T00:29:55.145Z,982.39
2017-11-13T00:31:05.308Z,982.45
2017-11-13T00:32:15.379Z,982.4
2017-11-13T00:33:25.453Z,982.38
2017-11-13T00:34:35.528Z,982.46
2017-11-13T00:35:45.593Z,982.56
2017-11-13T00:36:55.350Z,982.44
2017-11-13T00:38:05.083Z,982.63
2017-11-13T00:39:14.825Z,982.39
2017-11-13T00:40:25.255Z,982.52
2017-11-13T00:41:35.686Z,982.47
2017-11-13T00:42:45.776Z,982.29
2017-11-13T00:43:55.861Z,982.43
2017-11-13T00:45:05.948Z,982.45
2017-11-13T00:46:16.054Z,982.46
2017-11-13T00:47:26.134Z,982.52
2017-11-13T00:48:36.552Z,982.45
2017-11-13T00:49:46.950Z,982.54
2017-11-13T00:50:57.019Z,982.56
2017-11-13T00:52:07.107Z,982.54
2017-11-13T00:53:17.530Z,982.59
2017-11-13T00:54:27.669Z,982.45
2017-11-13T00:55:37.760Z,982.56
2017-11-13T00:56:47.837Z,982.79
2017-11-13T00:57:58.252Z,982.91
2017-11-13T00:59:08.335Z,982.99
2017-11-13T01:00:18.805Z,982.96
2017-11-13T01:01:29.225Z,983
2017-11-13T01:02:39.644Z,983.11
2017-11-13T01:03:50.056Z,982.86
2017-11-13T01:04:59.792Z,982.91
2017-11-13T01:06:09.874Z,982.76
2017-11-13T01:07:19.941Z,982.77
2017-11-13T01:08:30.352Z,982.96
2017-11-13T01:09:40.096Z,983.02
2017-11-13T01:10:50.169Z,982.91
2017-11-13T01:12:00.639Z,983.06
2017-11-13T01:13:10.741Z,983
2017-11-13T01:14:21.178Z,983.03
2017-11-13T01:15:31.661Z,983.22
2017-11-13T01:16:42.068Z,983.15
2017-11-13T01:17:52.147Z,983.35
2017-11-13T01:19:01.881Z,983.46
2017-11-13T01:20:12.292Z,983.49
2017-11-13T01:21:22.373Z,983.49
2017-11-13T01:22:32.780Z,983.51
2017-11-13T01:23:42.575Z,983.53
2017-11-13T01:24:52.333Z,983.65
2017-11-13T01:26:02.426Z,983.72
2017-11-13T01:27:12.831Z,983.73
2017-11-13T01:28:22.903Z,983.73
2017-11-13T01:29:33.018Z,983.75
2017-11-13T01:30:43.110Z,983.89
2017-11-13T01:31:53.518Z,983.86
2017-11-13T01:33:03.600Z,984.14
2017-11-13T01:34:14.021Z,984.01
2017-11-13T01:35:24.482Z,983.97
2017-11-13T01:36:34.222Z,983.99
2017-11-13T01:37:44.621Z,983.98
2017-11-13T01:38:54.718Z,984.06
2017-11-13T01:40:04.793Z,983.98
2017-11-13T01:41:14.877Z,983.98
2017-11-13T01:42:25.277Z,984.03
2017-11-13T01:43:35.717Z,983.92
2017-11-13T01:44:45.802Z,983.97
2017-11-13T01:45:56.200Z,983.99
2017-11-13T01:47:06.342Z,983.93
2017-11-13T01:48:16.095Z,984.07
2017-11-13T01:49:26.504Z,983.97
2017-11-13T01:50:37.408Z,983.96
2017-11-13T01:51:47.809Z,983.91
2017-11-13T01:52:58.266Z,983.99
2017-11-13T01:54:08.682Z,983.94
2017-11-13T01:55:19.099Z,983.84
2017-11-13T01:56:29.502Z,983.85
2017-11-13T01:57:39.908Z,983.81
2017-11-13T01:58:50.899Z,983.71
2017-11-13T02:00:00.972Z,983.78
2017-11-13T02:01:11.372Z,983.65
2017-11-13T02:02:21.764Z,983.69
2017-11-13T02:03:32.162Z,983.73
2017-11-13T02:04:42.628Z,983.67
2017-11-13T02:05:52.384Z,983.5
2017-11-13T02:07:02.801Z,983.5
2017-11-13T02:08:12.875Z,983.6
2017-11-13T02:09:23.288Z,983.56
2017-11-13T02:10:33.875Z,983.43
2017-11-13T02:11:44.297Z,983.47
2017-11-13T02:12:54.374Z,983.43
2017-11-13T02:14:04.128Z,983.41
2017-11-13T02:15:14.557Z,983.39
2017-11-13T02:16:24.992Z,983.42
2017-11-13T02:17:35.125Z,983.43
2017-11-13T02:18:45.561Z,983.38
2017-11-13T02:19:55.980Z,983.37
2017-11-13T02:21:06.399Z,983.47
2017-11-13T02:22:16.809Z,983.45
2017-11-13T02:23:26.889Z,983.45
2017-11-13T02:24:36.976Z,983.47
2017-11-13T02:25:47.379Z,983.46
2017-11-13T02:26:57.455Z,983.43
2017-11-13T02:28:07.573Z,983.43
2017-11-13T02:29:17.990Z,983.63
2017-11-13T02:30:28.447Z,983.45
2017-11-13T02:31:38.852Z,983.6
2017-11-13T02:32:48.935Z,983.53
2017-11-13T02:33:59.396Z,983.64
2017-11-13T02:35:09.472Z,983.63
2017-11-13T02:36:19.211Z,983.71
2017-11-13T02:37:29.292Z,983.77
2017-11-13T02:38:39.378Z,983.71
2017-11-13T02:39:49.441Z,983.87
2017-11-13T02:40:59.193Z,983.87
2017-11-13T02:42:09.605Z,984.05
2017-11-13T02:43:20.020Z,983.92
2017-11-13T02:44:30.417Z,983.99
2017-11-13T02:45:40.235Z,983.98
2017-11-13T02:46:50.353Z,983.98
2017-11-13T02:48:00.103Z,984.05
2017-11-13T02:49:10.511Z,984.05
2017-11-13T02:50:20.937Z,984.02
2017-11-13T02:51:31.003Z,984.06
2017-11-13T02:52:41.422Z,984.06
2017-11-13T02:53:51.507Z,984.12
2017-11-13T02:55:01.916Z,984.05
2017-11-13T02:56:12.325Z,984.12
2017-11-13T02:57:22.420Z,984.1
2017-11-13T02:58:32.489Z,984.06
2017-11-13T02:59:42.928Z,984.07
2017-11-13T03:00:52.671Z,984.18
2017-11-13T03:02:03.084Z,984.17
2017-11-13T03:33:07.006Z,985.19
2017-11-13T03:34:17.037Z,985.09
2017-11-13T03:35:26.420Z,985.2
2017-11-13T03:36:36.514Z,985.18
2017-11-13T03:37:46.953Z,985.18
2017-11-13T03:38:57.414Z,985.19
2017-11-13T03:40:07.487Z,985.27
2017-11-13T03:41:17.899Z,985.28
2017-11-13T03:42:27.974Z,985.35
2017-11-13T03:43:38.377Z,985.39
2017-11-13T03:44:48.493Z,985.38
2017-11-13T03:45:58.564Z,985.34
2017-11-13T03:47:08.967Z,985.37
2017-11-13T03:48:19.043Z,985.39
2017-11-13T03:49:28.800Z,985.46
2017-11-13T03:50:39.207Z,985.46
2017-11-13T03:51:49.607Z,985.57
2017-11-13T03:53:00.024Z,985.6
2017-11-13T03:54:10.110Z,985.5
2017-11-13T03:55:20.187Z,985.52
2017-11-13T03:56:30.639Z,985.59
2017-11-13T03:57:41.044Z,985.58
2017-11-13T03:58:51.459Z,985.6
2017-11-13T04:00:01.216Z,985.61
2017-11-13T04:01:11.278Z,985.58
2017-11-13T04:02:21.426Z,985.53
2017-11-13T04:03:31.507Z,985.44
2017-11-13T04:04:41.930Z,985.4
2017-11-13T04:05:52.001Z,985.47
2017-11-13T04:07:02.082Z,985.49
2017-11-13T04:08:12.555Z,985.48
2017-11-13T04:09:22.630Z,985.52
2017-11-13T04:10:33.030Z,985.59
2017-11-13T04:11:43.124Z,985.58
2017-11-13T04:12:53.511Z,985.52
2017-11-13T04:14:03.924Z,985.55
2017-11-13T04:15:14.324Z,985.63
2017-11-13T04:16:24.747Z,985.53
2017-11-13T04:17:35.167Z,985.47
2017-11-13T04:18:44.913Z,985.57
2017-11-13T04:19:55.371Z,985.52
2017-11-13T04:21:05.460Z,985.52
2017-11-13T04:22:15.878Z,985.59
2017-11-13T04:23:25.634Z,985.53
2017-11-13T04:24:35.380Z,985.53
2017-11-13T04:25:45.841Z,985.52
2017-11-13T04:26:56.246Z,985.7
2017-11-13T04:28:06.332Z,985.63
2017-11-13T04:29:16.408Z,985.67
2017-11-13T04:30:26.482Z,985.74
2017-11-13T04:31:36.885Z,985.77
2017-11-13T04:32:47.291Z,985.73
2017-11-13T04:33:57.699Z,985.75
2017-11-13T04:35:08.097Z,985.69
2017-11-13T04:36:17.844Z,985.72
2017-11-13T04:37:27.974Z,985.71
2017-11-13T04:38:38.459Z,985.59
2017-11-13T04:39:48.876Z,985.64
2017-11-13T04:40:58.958Z,985.67
2017-11-13T04:42:09.384Z,985.77
2017-11-13T04:43:19.479Z,985.77
2017-11-13T04:44:29.534Z,985.79
2017-11-13T04:45:39.949Z,985.72
2017-11-13T04:46:50.042Z,985.81
2017-11-13T04:48:00.451Z,985.86
2017-11-13T04:49:10.567Z,985.89
2017-11-13T04:50:20.982Z,985.89
2017-11-13T04:51:31.378Z,985.85
2017-11-13T04:52:41.455Z,986.04
2017-11-13T04:53:51.871Z,985.92
2017-11-13T04:55:01.961Z,985.97
2017-11-13T04:56:12.371Z,985.95
2017-11-13T04:57:22.453Z,985.99
2017-11-13T04:58:32.529Z,986.11
2017-11-13T04:59:42.632Z,986.01
2017-11-13T05:00:52.718Z,986.08
2017-11-13T05:02:02.801Z,986.08
2017-11-13T05:03:12.923Z,985.99
2017-11-13T05:04:23.339Z,986.07
2017-11-13T05:05:33.794Z,986.09
2017-11-13T05:06:43.572Z,986.05
2017-11-13T05:07:53.980Z,986.05
2017-11-13T05:09:04.382Z,986.08
2017-11-13T05:10:14.817Z,986.24
2017-11-13T05:11:24.908Z,986.35
2017-11-13T05:12:35.366Z,986.35
2017-11-13T05:13:45.791Z,986.34
2017-11-13T05:14:56.215Z,986.28
2017-11-13T05:16:06.285Z,986.41
2017-11-13T05:17:16.359Z,986.3
2017-11-13T05:18:26.437Z,986.37
2017-11-13T05:19:36.517Z,986.54
2017-11-13T05:20:46.589Z,986.38
2017-11-13T05:21:56.998Z,986.4
2017-11-13T05:23:06.748Z,986.36
2017-11-13T05:24:16.499Z,986.35
2017-11-13T05:25:26.933Z,986.28
2017-11-13T05:26:37.381Z,986.32
2017-11-13T05:27:47.806Z,986.24
2017-11-13T05:28:58.232Z,986.2
2017-11-13T05:30:07.977Z,986.35
2017-11-13T05:31:18.412Z,986.29
2017-11-13T05:32:28.832Z,986.39
2017-11-13T05:33:38.912Z,986.33
2017-11-13T05:34:49.320Z,986.4
2017-11-13T05:35:59.074Z,986.41
2017-11-13T05:37:09.155Z,986.39
2017-11-13T05:38:19.583Z,986.35
2017-11-13T05:39:29.997Z,986.35
2017-11-13T05:40:40.397Z,986.27
2017-11-13T05:41:50.804Z,986.27
2017-11-13T05:43:00.215Z,986.34
2017-11-13T05:44:10.283Z,986.37
2017-11-13T05:45:20.362Z,986.32
2017-11-13T05:46:30.452Z,986.37
2017-11-13T05:47:40.539Z,986.33
2017-11-13T05:48:50.950Z,986.33
2017-11-13T05:50:01.358Z,986.42
2017-11-13T05:51:11.104Z,986.47
2017-11-13T05:52:21.190Z,986.42
2017-11-13T05:53:31.585Z,986.47
2017-11-13T05:54:41.667Z,986.4
2017-11-13T05:55:52.090Z,986.57
2017-11-13T05:57:02.742Z,986.51
2017-11-13T05:58:13.159Z,986.54
2017-11-13T05:59:22.895Z,986.57
2017-11-13T06:00:33.292Z,986.64
2017-11-13T06:01:43.371Z,986.56
2017-11-13T06:02:53.783Z,986.58
2017-11-13T06:04:04.205Z,986.63
2017-11-13T06:05:13.965Z,986.63
2017-11-13T06:06:24.037Z,986.68
2017-11-13T06:07:34.434Z,986.54
2017-11-13T06:08:44.537Z,986.68
2017-11-13T06:09:54.932Z,986.74
2017-11-13T06:11:04.999Z,986.65
2017-11-13T06:12:15.433Z,986.8
2017-11-13T06:13:25.845Z,986.81
2017-11-13T06:14:35.920Z,986.89
2017-11-13T06:15:45.656Z,986.95
2017-11-13T06:16:56.118Z,986.9
2017-11-13T06:18:06.510Z,986.89
2017-11-13T06:19:16.581Z,987
2017-11-13T06:20:26.652Z,987.01
2017-11-13T06:21:36.725Z,986.98
2017-11-13T06:22:47.292Z,987
2017-11-13T06:23:57.378Z,987.05
2017-11-13T06:25:07.789Z,987
2017-11-13T06:26:17.862Z,987
2017-11-13T06:27:27.941Z,987.08
2017-11-13T06:28:37.698Z,987.07
2017-11-13T06:29:47.764Z,987.13
2017-11-13T06:30:57.835Z,987.24
2017-11-13T06:32:08.262Z,987.18
2017-11-13T06:33:18.708Z,987.12
2017-11-13T06:34:29.170Z,987.24
2017-11-13T06:35:38.933Z,987.31
2017-11-13T06:36:49.379Z,987.17
2017-11-13T06:37:58.798Z,987.21
2017-11-13T06:39:09.228Z,987.09
2017-11-13T06:40:19.356Z,987.47
2017-11-13T06:41:29.420Z,987.3
2017-11-13T06:42:39.831Z,987.34
2017-11-13T06:43:49.909Z,987.49
2017-11-13T06:45:00.316Z,987.42
2017-11-13T06:46:10.429Z,987.48
2017-11-13T06:47:20.854Z,987.45
2017-11-13T06:48:31.278Z,987.58
2017-11-13T06:49:41.344Z,987.54
2017-11-13T06:50:51.435Z,987.58
2017-11-13T06:52:01.855Z,987.55
2017-11-13T06:53:11.936Z,987.63
2017-11-13T06:54:22.354Z,987.62
2017-11-13T06:55:32.446Z,987.5
2017-11-13T06:56:42.878Z,987.5
2017-11-13T06:57:53.287Z,987.49
2017-11-13T06:59:03.691Z,987.48
2017-11-13T07:00:13.433Z,987.44
2017-11-13T07:01:23.517Z,987.48
2017-11-13T07:02:33.593Z,987.45
2017-11-13T07:03:43.670Z,987.59
2017-11-13T07:04:54.072Z,987.57
2017-11-13T07:06:04.491Z,987.6
2017-11-13T07:07:14.555Z,987.69
2017-11-13T07:08:24.977Z,987.62
2017-11-13T07:09:35.386Z,987.66
2017-11-13T07:10:45.479Z,987.82
2017-11-13T07:11:55.583Z,987.78
2017-11-13T07:13:05.661Z,987.83
2017-11-13T07:14:15.755Z,987.79
2017-11-13T07:15:25.896Z,987.84
2017-11-13T07:16:36.318Z,987.94
2017-11-13T07:17:46.396Z,987.81
2017-11-13T07:18:56.813Z,987.87
2017-11-13T07:20:06.884Z,988.02
2017-11-13T07:21:16.696Z,988.07
2017-11-13T07:22:26.757Z,988.01
2017-11-13T07:23:37.178Z,988.1
2017-11-13T07:24:47.604Z,988.06
2017-11-13T07:25:57.355Z,988.06
2017-11-13T07:27:07.433Z,988.11
2017-11-13T07:28:17.857Z,988.08
2017-11-13T07:29:27.934Z,988.09
2017-11-13T07:30:38.357Z,988.11
2017-11-13T07:31:48.476Z,988.18
2017-11-13T07:32:58.890Z,988.2
2017-11-13T07:34:08.963Z,988.21
2017-11-13T07:35:18.708Z,988.34
2017-11-13T07:36:29.106Z,988.26
2017-11-13T07:37:39.529Z,988.26
2017-11-13T07:38:50.006Z,988.25
2017-11-13T07:40:00.419Z,988.26
2017-11-13T07:41:10.514Z,988.21
2017-11-13T07:42:20.587Z,988.22
2017-11-13T07:43:30.664Z,988.25
2017-11-13T07:44:40.851Z,988.33
2017-11-13T07:45:50.931Z,988.39
2017-11-13T07:47:01.353Z,988.36
2017-11-13T07:48:11.749Z,988.26
2017-11-13T07:49:22.171Z,988.23
2017-11-13T07:50:32.651Z,988.32
2017-11-13T07:51:42.739Z,988.16
2017-11-13T07:52:52.506Z,988.28
2017-11-13T07:54:02.929Z,988.3
2017-11-13T07:55:12.685Z,988.32
2017-11-13T07:56:23.102Z,988.4
2017-11-13T07:57:33.505Z,988.51
2017-11-13T07:58:44.001Z,988.39
2017-11-13T07:59:54.500Z,988.51
2017-11-13T08:01:04.590Z,988.48
2017-11-13T08:02:14.684Z,988.53
2017-11-13T08:03:25.091Z,988.56
2017-11-13T08:04:35.515Z,988.59
2017-11-13T08:05:46.002Z,988.63
2017-11-13T08:06:56.424Z,988.73
2017-11-13T08:08:06.496Z,988.65
2017-11-13T08:09:16.907Z,988.64
2017-11-13T08:10:27.310Z,988.7
2017-11-13T08:11:37.071Z,988.72
2017-11-13T08:12:47.475Z,988.58
2017-11-13T08:13:57.549Z,988.59
2017-11-13T08:15:07.630Z,988.53
2017-11-13T08:16:17.706Z,988.51
2017-11-13T08:17:27.773Z,988.7
2017-11-13T08:18:37.849Z,988.56
2017-11-13T08:19:48.819Z,988.62
2017-11-13T08:20:59.233Z,988.56
2017-11-13T08:22:09.648Z,988.58
2017-11-13T08:23:20.109Z,988.7
2017-11-13T08:24:30.519Z,988.61
2017-11-13T08:25:40.943Z,988.74
2017-11-13T08:26:51.356Z,988.75
2017-11-13T08:28:01.775Z,988.72
2017-11-13T08:29:11.868Z,988.73
2017-11-13T08:30:22.308Z,988.72
2017-11-13T08:31:32.720Z,988.76
2017-11-13T08:32:42.468Z,988.71
2017-11-13T08:33:52.874Z,988.75
2017-11-13T08:35:03.295Z,988.86
2017-11-13T08:36:13.402Z,988.85
2017-11-13T08:37:23.499Z,988.8
2017-11-13T08:38:33.911Z,988.84
2017-11-13T08:39:43.999Z,988.83
2017-11-13T08:40:54.089Z,988.85
2017-11-13T08:42:03.533Z,988.9
2017-11-13T08:43:13.629Z,988.86
2017-11-13T08:44:24.051Z,988.84
2017-11-13T08:45:33.797Z,988.9
2017-11-13T08:46:43.881Z,989.03
2017-11-13T08:47:54.291Z,989.09
2017-11-13T08:49:04.702Z,989.03
2017-11-13T08:50:15.143Z,989.04
2017-11-13T08:51:25.226Z,989.16
2017-11-13T08:52:35.656Z,989.13
2017-11-13T08:53:45.725Z,989.2
2017-11-13T08:54:55.815Z,989.17
2017-11-13T08:56:05.903Z,989.21
2017-11-13T08:57:15.654Z,989.25
2017-11-13T08:58:25.886Z,989.29
2017-11-13T08:59:36.300Z,989.34
2017-11-13T09:00:46.719Z,989.36
2017-11-13T09:01:57.131Z,989.37
2017-11-13T09:03:07.568Z,989.38
2017-11-13T09:04:17.989Z,989.37
2017-11-13T09:05:28.420Z,989.42
2017-11-13T09:06:38.526Z,989.43
2017-11-13T09:07:48.967Z,989.36
2017-11-13T09:08:59.062Z,989.41
2017-11-13T09:10:08.814Z,989.34
2017-11-13T09:11:18.910Z,989.41
2017-11-13T09:12:29.341Z,989.48
2017-11-13T09:13:39.070Z,989.51
2017-11-13T09:14:49.151Z,989.55
2017-11-13T09:15:59.237Z,989.68
2017-11-13T09:17:08.635Z,989.54
2017-11-13T09:18:19.303Z,989.66
2017-11-13T09:19:28.707Z,989.63
2017-11-13T09:20:38.806Z,989.67
2017-11-13T09:21:48.876Z,989.65
2017-11-13T09:22:58.629Z,989.73
2017-11-13T09:24:08.712Z,989.81
2017-11-13T09:25:19.117Z,989.79
2017-11-13T09:26:29.189Z,989.8
2017-11-13T09:27:39.615Z,989.89
2017-11-13T09:28:50.017Z,989.83
2017-11-13T09:29:59.779Z,989.9
2017-11-13T09:31:09.517Z,989.94
2017-11-13T09:32:19.605Z,989.91
2017-11-13T09:33:29.650Z,989.92
2017-11-13T09:34:40.362Z,990
2017-11-13T09:35:50.464Z,990
2017-11-13T09:37:00.935Z,989.94
2017-11-13T09:38:11.050Z,989.99
2017-11-13T09:39:21.522Z,989.99
2017-11-13T09:40:31.939Z,990.07
2017-11-13T09:41:42.101Z,990.03
2017-11-13T09:42:52.200Z,990.04
2017-11-13T09:44:02.897Z,990.1
2017-11-13T09:45:13.319Z,990.09
2017-11-13T09:46:23.394Z,990.11
2017-11-13T09:47:33.881Z,990.19
2017-11-13T09:48:44.377Z,990.21
2017-11-13T09:49:54.164Z,990.18
2017-11-13T09:51:04.609Z,990.15
2017-11-13T09:52:15.028Z,990.15
2017-11-13T09:53:25.538Z,990.2
2017-11-13T09:54:35.651Z,990.17
2017-11-13T09:55:45.765Z,990.17
2017-11-13T09:56:55.861Z,990.2
2017-11-13T09:58:06.287Z,990.17
2017-11-13T09:59:17.034Z,990.27
2017-11-13T10:00:28.666Z,990.29
2017-11-13T10:01:38.784Z,990.31
2017-11-13T10:02:49.228Z,990.3
2017-11-13T10:03:59.309Z,990.3
2017-11-13T10:05:09.775Z,990.43
2017-11-13T10:06:19.867Z,990.24
2017-11-13T10:07:29.952Z,990.3
2017-11-13T10:08:40.021Z,990.23
2017-11-13T10:09:50.450Z,990.21
2017-11-13T10:11:00.555Z,990.29
2017-11-13T10:12:10.993Z,990.22
2017-11-13T10:13:21.444Z,990.26
2017-11-13T10:14:31.879Z,990.44
2017-11-13T10:15:41.985Z,990.3
2017-11-13T10:16:52.404Z,990.41
2017-11-13T10:18:02.835Z,990.4
2017-11-13T10:19:13.312Z,990.31
2017-11-13T10:20:23.093Z,990.33
2017-11-13T10:21:33.564Z,990.28
2017-11-13T10:22:43.640Z,990.25
2017-11-13T10:23:54.068Z,990.22
2017-11-13T10:25:04.497Z,990.14
2017-11-13T10:26:14.924Z,990.26
2017-11-13T10:27:25.347Z,990.27
2017-11-13T10:28:35.813Z,990.26
2017-11-13T10:29:45.578Z,990.3
2017-11-13T10:30:56.039Z,990.34
2017-11-13T10:32:06.481Z,990.38
2017-11-13T10:33:16.897Z,990.43
2017-11-13T10:34:26.700Z,990.47
2017-11-13T10:35:36.802Z,990.57
2017-11-13T10:36:46.920Z,990.59
2017-11-13T10:37:56.677Z,990.44
2017-11-13T10:39:06.425Z,990.46
2017-11-13T10:40:16.911Z,990.42
2017-11-13T10:41:27.342Z,990.35
2017-11-13T10:42:37.818Z,990.43
2017-11-13T10:43:47.901Z,990.3
2017-11-13T10:44:58.106Z,990.32
2017-11-13T10:46:07.888Z,990.33
2017-11-13T10:47:17.632Z,990.34
2017-11-13T10:48:27.784Z,990.35
2017-11-13T10:49:38.208Z,990.49
2017-11-13T10:50:48.300Z,990.39
2017-11-13T10:51:58.745Z,990.55
2017-11-13T10:53:09.188Z,990.46
2017-11-13T10:54:19.622Z,990.48
2017-11-13T10:55:30.072Z,990.45
2017-11-13T10:56:39.842Z,990.47
2017-11-13T10:57:50.404Z,990.53
2017-11-13T10:59:00.159Z,990.47
2017-11-13T11:00:10.247Z,990.57
2017-11-13T11:01:20.332Z,990.52
2017-11-13T11:02:30.089Z,990.61
2017-11-13T11:03:40.228Z,990.54
2017-11-13T11:04:50.314Z,990.3
2017-11-13T11:06:00.732Z,990.39
2017-11-13T11:07:11.180Z,990.35
2017-11-13T11:08:20.947Z,990.34
2017-11-13T11:09:31.435Z,990.36
2017-11-13T11:10:41.869Z,990.33
2017-11-13T11:11:52.283Z,990.41
2017-11-13T11:13:02.708Z,990.41
2017-11-13T11:14:12.792Z,990.45
2017-11-13T11:15:22.997Z,990.47
2017-11-13T11:16:33.426Z,990.54
2017-11-13T11:17:43.865Z,990.49
2017-11-13T11:18:53.961Z,990.58
2017-11-13T11:20:05.116Z,990.57
2017-11-13T11:21:15.218Z,990.63
2017-11-13T11:22:24.972Z,990.6
2017-11-13T11:23:35.071Z,990.66
2017-11-13T11:24:45.159Z,990.7
2017-11-13T11:25:55.576Z,990.8
2017-11-13T11:27:04.997Z,990.86
2017-11-13T11:28:15.429Z,990.88
2017-11-13T11:29:25.859Z,990.87
2017-11-13T11:30:35.983Z,990.94
2017-11-13T11:31:46.681Z,990.9
2017-11-13T11:32:56.850Z,990.83
2017-11-13T11:34:07.291Z,990.84
2017-11-13T11:35:17.771Z,990.92
2017-11-13T11:36:27.185Z,990.88
2017-11-13T11:37:37.268Z,990.96
2017-11-13T11:38:47.697Z,990.85
2017-11-13T11:39:58.194Z,990.95
2017-11-13T11:41:08.614Z,991.07
2017-11-13T11:42:18.374Z,991
2017-11-13T11:43:28.451Z,990.94
2017-11-13T11:44:38.879Z,990.93
2017-11-13T11:45:48.985Z,990.94
2017-11-13T11:46:59.076Z,990.81
2017-11-13T11:48:09.513Z,990.88
2017-11-13T11:49:19.594Z,990.87
2017-11-13T11:50:29.727Z,990.88
2017-11-13T11:51:39.840Z,990.89
2017-11-13T11:52:49.962Z,990.89
2017-11-13T11:54:00.055Z,990.91
2017-11-13T11:55:10.137Z,990.9
2017-11-13T11:56:20.565Z,990.96
2017-11-13T11:57:31.018Z,990.99
2017-11-13T11:58:41.100Z,991.02
2017-11-13T11:59:51.193Z,991.05
2017-11-13T12:01:01.634Z,991.03
2017-11-13T12:02:11.405Z,991.07
2017-11-13T12:03:21.817Z,991.05
2017-11-13T12:04:32.272Z,991.06
2017-11-13T12:05:42.351Z,991.15
2017-11-13T12:06:52.775Z,991.21
2017-11-13T12:08:03.244Z,991.28
2017-11-13T12:09:13.720Z,991.28
2017-11-13T12:10:23.490Z,991.2
2017-11-13T12:11:33.924Z,991.32
2017-11-13T12:12:44.341Z,991.36
2017-11-13T12:13:54.817Z,991.39
2017-11-13T12:15:05.252Z,991.44
2017-11-13T12:16:15.697Z,991.46
2017-11-13T12:17:26.124Z,991.5
2017-11-13T12:18:36.208Z,991.47
2017-11-13T12:19:46.637Z,991.6
2017-11-13T12:20:57.048Z,991.49
2017-11-13T12:22:07.156Z,991.48
2017-11-13T12:23:16.569Z,991.44
2017-11-13T12:24:26.664Z,991.49
2017-11-13T12:25:36.810Z,991.49
2017-11-13T12:26:46.897Z,991.66
2017-11-13T12:27:58.535Z,991.53
2017-11-13T12:29:08.950Z,991.59
2017-11-13T12:30:19.377Z,991.57
2017-11-13T12:31:29.842Z,991.71
2017-11-13T12:32:39.932Z,991.76
2017-11-13T12:33:50.152Z,991.7
2017-11-13T12:34:59.559Z,991.92
2017-11-13T12:36:10.133Z,991.85
2017-11-13T12:37:21.706Z,991.9
2017-11-13T12:38:31.793Z,991.94
2017-11-13T12:39:42.232Z,991.85
2017-11-13T12:40:52.658Z,991.87
2017-11-13T12:42:03.070Z,991.92
2017-11-13T12:43:13.159Z,991.92
2017-11-13T12:44:23.579Z,991.88
2017-11-13T12:45:33.326Z,991.88
2017-11-13T12:46:43.780Z,991.89
2017-11-13T12:47:53.899Z,991.92
2017-11-13T12:49:04.013Z,991.88
2017-11-13T12:50:14.097Z,991.89
2017-11-13T12:51:24.195Z,991.9
2017-11-13T12:52:34.602Z,991.85
2017-11-13T12:53:44.349Z,991.92
2017-11-13T12:54:54.484Z,991.9
2017-11-13T12:56:04.930Z,991.91
2017-11-13T12:57:15.346Z,991.92
2017-11-13T12:58:25.766Z,991.98
2017-11-13T12:59:35.869Z,991.97
2017-11-13T13:00:46.368Z,992
2017-11-13T13:01:56.124Z,991.95
2017-11-13T13:03:06.828Z,991.98
2017-11-13T13:04:17.272Z,991.92
2017-11-13T13:05:27.364Z,991.97
2017-11-13T13:06:37.821Z,991.91
2017-11-13T13:07:47.928Z,991.98
2017-11-13T13:08:58.384Z,992.07
2017-11-13T13:10:08.852Z,992.09
2017-11-13T13:11:19.291Z,992.21
2017-11-13T13:12:29.779Z,992.17
2017-11-13T13:13:40.207Z,992.17
2017-11-13T13:14:50.295Z,992.21
2017-11-13T13:16:00.063Z,992.19
2017-11-13T13:17:09.810Z,992.33
2017-11-13T13:18:20.223Z,992.24
2017-11-13T13:19:30.656Z,992.22
2017-11-13T13:20:40.734Z,992.25
2017-11-13T13:21:50.830Z,992.32
2017-11-13T13:23:00.915Z,992.26
2017-11-13T13:24:10.652Z,992.37
2017-11-13T13:25:21.133Z,992.25
2017-11-13T13:26:31.553Z,992.25
2017-11-13T13:27:41.667Z,992.25
2017-11-13T13:28:51.750Z,992.27
2017-11-13T13:30:01.842Z,992.27
2017-11-13T13:31:11.955Z,992.18
2017-11-13T13:32:22.394Z,992.23
2017-11-13T13:33:32.484Z,992.22
2017-11-13T13:34:42.909Z,992.43
2017-11-13T13:35:52.673Z,992.32
2017-11-13T13:37:02.769Z,992.16
2017-11-13T13:38:12.194Z,992.29
2017-11-13T13:39:22.601Z,992.21
2017-11-13T13:40:33.026Z,992.23
2017-11-13T13:41:44.490Z,992.27
2017-11-13T13:42:54.569Z,992.3
2017-11-13T13:44:04.662Z,992.35
2017-11-13T13:45:14.420Z,992.43
2017-11-13T13:46:24.852Z,992.45
2017-11-13T13:47:35.339Z,992.45
2017-11-13T13:48:45.445Z,992.45
2017-11-13T13:49:55.861Z,992.57
2017-11-13T13:51:06.296Z,992.53
2017-11-13T13:52:16.706Z,992.59
2017-11-13T13:53:27.176Z,992.53
2017-11-13T13:54:37.602Z,992.54
2017-11-13T13:55:47.375Z,992.48
2017-11-13T13:56:57.777Z,992.52
2017-11-13T13:58:07.544Z,992.48
2017-11-13T13:59:17.965Z,992.44
2017-11-13T14:00:28.037Z,992.47
2017-11-13T14:01:38.120Z,992.48
2017-11-13T14:02:48.210Z,992.54
2017-11-13T14:03:58.639Z,992.54
2017-11-13T14:05:09.066Z,992.54
2017-11-13T14:06:19.496Z,992.5
2017-11-13T14:07:29.593Z,992.57
2017-11-13T14:08:38.676Z,992.59
2017-11-13T14:09:49.348Z,992.53
2017-11-13T14:10:59.768Z,992.53
2017-11-13T14:12:10.195Z,992.56
2017-11-13T14:13:20.611Z,992.49
2017-11-13T14:14:31.043Z,992.62
2017-11-13T14:15:41.504Z,992.66
2017-11-13T14:16:51.646Z,992.65
2017-11-13T14:18:02.097Z,992.75
2017-11-13T14:19:12.203Z,992.84
2017-11-13T14:20:22.301Z,992.86
2017-11-13T14:21:32.403Z,992.76
2017-11-13T14:22:42.561Z,992.88
2017-11-13T14:23:52.660Z,992.88
2017-11-13T14:25:03.109Z,992.89
2017-11-13T14:26:13.554Z,992.94
2017-11-13T14:27:23.961Z,992.9
2017-11-13T14:28:34.110Z,992.98
2017-11-13T14:29:44.513Z,993.01
2017-11-13T14:30:54.622Z,992.97
2017-11-13T14:32:04.355Z,993.06
2017-11-13T14:33:14.783Z,993.09
2017-11-13T14:34:25.255Z,993.11
2017-11-13T14:35:35.378Z,993.1
2017-11-13T14:36:45.127Z,993.25
2017-11-13T14:37:56.145Z,993.04
2017-11-13T14:39:06.564Z,993.19
2017-11-13T14:40:17.048Z,993.15
2017-11-13T14:41:27.136Z,993.11
2017-11-13T14:42:37.585Z,992.97
2017-11-13T14:43:48.011Z,993.06
2017-11-13T14:44:58.430Z,993.04
2017-11-13T14:46:08.901Z,993.12
2017-11-13T14:47:18.990Z,993.17
2017-11-13T14:48:29.097Z,993.23
2017-11-13T14:49:39.185Z,993.36
2017-11-13T14:50:48.932Z,993.44
2017-11-13T14:51:59.389Z,993.52
2017-11-13T14:53:09.533Z,993.64
2017-11-13T14:54:19.271Z,993.75
2017-11-13T14:55:29.388Z,993.77
2017-11-13T14:56:39.502Z,993.76
2017-11-13T14:57:49.703Z,993.84
2017-11-13T14:59:00.205Z,993.83
2017-11-13T15:00:10.623Z,993.94
2017-11-13T15:01:21.121Z,993.93
2017-11-13T15:02:31.228Z,993.96
2017-11-13T15:03:41.707Z,994.01
2017-11-13T15:04:51.898Z,994.11
2017-11-13T15:06:02.019Z,994.21
2017-11-13T15:07:12.174Z,994.17
2017-11-13T15:08:22.643Z,994.16
2017-11-13T15:09:32.807Z,994.07